Time;durP1;ratioP1;P1;durP2;ratioP2;P2;SDS_P1;SDS_P2;PMS_P1;PMS_P2;Temp;Humidity;BMP_temperature;BMP_pressure;BME280_temperature;BME280_humidity;BME280_pressure;Samples;Min_cycle;Max_cycle;Signal;HPM_P1;HPM_P2
2023/03/20 00:02:23;;;;;;;3.90;1.77;;;;;;;19.47;43.83;101918.31;5037324;28;20028;-71
2023/03/20 00:04:48;;;;;;;6.32;2.10;;;;;;;19.48;43.69;101921.78;5040769;28;20186;-72
2023/03/20 00:07:13;;;;;;;5.60;2.10;;;;;;;19.49;43.16;101932.25;5037346;28;20040;-72
2023/03/20 00:09:39;;;;;;;4.95;2.22;;;;;;;19.47;43.54;101923.59;5036892;28;20108;-75
2023/03/20 00:12:04;;;;;;;3.67;1.67;;;;;;;19.46;43.59;101916.59;5036962;28;20039;-76
2023/03/20 00:14:30;;;;;;;4.20;2.20;;;;;;;19.45;43.46;101917.53;5037426;28;20140;-75
2023/03/20 00:16:56;;;;;;;4.75;1.95;;;;;;;19.42;43.32;101917.75;5037134;28;20041;-72
2023/03/20 00:19:24;;;;;;;4.53;1.73;;;;;;;19.45;43.46;101922.00;5037432;28;20057;-72
2023/03/20 00:21:52;;;;;;;4.97;1.90;;;;;;;19.39;43.55;101915.31;5037265;28;20069;-71
2023/03/20 00:24:17;;;;;;;4.82;1.70;;;;;;;19.42;43.37;101920.41;5036965;28;20152;-71
2023/03/20 00:26:44;;;;;;;4.30;2.03;;;;;;;19.40;43.38;101912.56;5037581;28;20461;-74
2023/03/20 00:29:25;;;;;;;5.63;2.33;;;;;;;19.37;43.41;101907.50;5043527;28;20029;-72
2023/03/20 00:31:51;;;;;;;4.45;2.20;;;;;;;19.39;43.38;101895.03;5037230;28;20037;-73
2023/03/20 00:34:19;;;;;;;4.50;1.88;;;;;;;19.39;43.30;101891.53;5037120;28;20033;-72
2023/03/20 00:36:45;;;;;;;3.85;1.83;;;;;;;19.39;43.32;101888.88;5036995;28;20033;-72
2023/03/20 00:39:10;;;;;;;4.85;2.15;;;;;;;19.36;43.28;101891.78;5037337;28;20048;-72
2023/03/20 00:41:56;;;;;;;4.90;2.10;;;;;;;19.36;43.31;101889.97;5036751;28;20497;-75
2023/03/20 00:44:25;;;;;;;4.85;2.05;;;;;;;19.36;43.04;101883.84;5036929;28;20495;-74
2023/03/20 00:46:57;;;;;;;4.65;2.10;;;;;;;19.34;43.15;101880.44;5036367;28;20091;-73
2023/03/20 00:49:27;;;;;;;4.30;2.20;;;;;;;19.30;43.20;101869.25;5036705;28;20040;-69
2023/03/20 00:51:53;;;;;;;4.70;2.17;;;;;;;19.34;43.07;101869.88;5036716;28;20498;-71
2023/03/20 00:54:18;;;;;;;4.50;1.95;;;;;;;19.30;42.93;101871.06;5033668;28;20037;-69
2023/03/20 00:57:11;;;;;;;3.92;2.00;;;;;;;19.31;43.02;101878.00;5033277;28;20040;-70
2023/03/20 00:59:41;;;;;;;4.05;1.80;;;;;;;19.30;42.77;101889.56;5033458;28;20028;-71
2023/03/20 01:02:07;;;;;;;4.93;2.10;;;;;;;19.29;42.90;101896.63;5033764;28;20037;-71
2023/03/20 01:04:38;;;;;;;4.10;1.67;;;;;;;19.24;42.54;101893.47;5033359;28;20276;-73
2023/03/20 01:07:05;;;;;;;4.90;2.28;;;;;;;19.27;42.46;101906.47;5032397;28;20090;-71
2023/03/20 01:09:30;;;;;;;4.93;2.20;;;;;;;19.26;42.75;101917.13;5033025;28;20163;-71
2023/03/20 01:11:58;;;;;;;4.10;2.00;;;;;;;19.26;42.47;101933.84;5032425;28;20448;-70
2023/03/20 01:14:24;;;;;;;5.97;2.38;;;;;;;19.24;42.50;101932.28;5032932;28;20036;-71
2023/03/20 01:16:49;;;;;;;4.78;2.20;;;;;;;19.23;42.46;101918.19;5033438;28;20029;-73
2023/03/20 01:19:15;;;;;;;5.35;2.50;;;;;;;19.24;42.53;101909.31;5033612;28;20042;-71
2023/03/20 01:21:41;;;;;;;4.85;2.35;;;;;;;19.23;42.41;101907.63;5033488;28;20091;-71
2023/03/20 01:24:07;;;;;;;5.30;2.40;;;;;;;19.20;42.41;101890.19;5033329;28;20033;-75
2023/03/20 01:26:38;;;;;;;5.05;2.40;;;;;;;19.20;42.38;101902.53;5033497;28;20044;-72
2023/03/20 01:29:15;;;;;;;5.05;2.58;;;;;;;19.20;42.37;101892.84;5033212;28;20064;-71
2023/03/20 01:31:40;;;;;;;4.97;2.55;;;;;;;19.19;42.47;101912.28;5033292;28;20037;-72
2023/03/20 01:34:09;;;;;;;4.18;2.10;;;;;;;19.19;42.27;101914.91;5032829;28;20033;-75
2023/03/20 01:36:36;;;;;;;6.60;2.58;;;;;;;19.17;42.23;101916.00;5031373;28;20037;-71
2023/03/20 01:39:02;;;;;;;4.32;2.13;;;;;;;19.15;42.20;101896.72;5033032;28;20037;-71
2023/03/20 01:41:28;;;;;;;5.88;2.60;;;;;;;19.16;42.32;101898.44;5032843;28;20040;-72
2023/03/20 01:43:54;;;;;;;5.18;2.30;;;;;;;19.14;42.18;101901.19;5033109;28;20103;-73
2023/03/20 01:46:28;;;;;;;4.80;2.45;;;;;;;19.15;42.11;101910.81;5032893;28;20474;-73
2023/03/20 01:49:05;;;;;;;;;;;;;;;19.18;42.22;101896.53;5023455;28;20394;-73
2023/03/20 01:51:31;;;;;;;4.72;2.40;;;;;;;19.17;42.04;101898.34;5032431;28;19909;-73
2023/03/20 01:54:10;;;;;;;6.10;3.00;;;;;;;19.16;42.31;101899.28;5032342;28;20037;-76
2023/03/20 01:56:48;;;;;;;7.05;2.97;;;;;;;19.14;42.14;101892.41;5031684;28;20044;-73
2023/03/20 01:59:20;;;;;;;5.10;2.50;;;;;;;19.09;41.83;101889.22;5032899;28;20136;-73
2023/03/20 02:01:45;;;;;;;5.60;2.83;;;;;;;19.11;41.99;101898.75;5032111;28;20506;-75
2023/03/20 02:04:13;;;;;;;5.70;2.50;;;;;;;19.11;41.99;101905.84;5032714;28;20033;-72
2023/03/20 02:06:39;;;;;;;4.55;2.30;;;;;;;19.09;42.00;101902.44;5032992;28;20061;-73
2023/03/20 02:09:04;;;;;;;5.22;2.55;;;;;;;19.06;42.03;101885.03;5032094;28;20033;-71
2023/03/20 02:11:30;;;;;;;4.80;2.65;;;;;;;19.08;41.95;101912.16;5032465;28;20033;-72
2023/03/20 02:13:58;;;;;;;5.18;2.50;;;;;;;19.08;41.89;101924.53;5032601;28;20534;-76
2023/03/20 02:16:24;;;;;;;5.40;2.80;;;;;;;19.06;41.87;101919.38;5031787;28;20939;-72
2023/03/20 02:18:52;;;;;;;6.43;2.78;;;;;;;19.02;41.84;101921.34;5032209;28;20046;-72
2023/03/20 02:21:36;;;;;;;5.65;3.00;;;;;;;19.05;41.82;101914.19;5032449;28;20090;-71
2023/03/20 02:24:32;;;;;;;5.63;2.88;;;;;;;19.02;41.79;101916.06;5032143;28;20165;-70
2023/03/20 02:27:35;;;;;;;6.55;2.88;;;;;;;19.03;41.72;101916.94;5032020;28;20069;-71
2023/03/20 02:30:30;;;;;;;4.95;2.47;;;;;;;19.01;41.71;101932.06;5031899;28;20120;-71
2023/03/20 02:33:04;;;;;;;5.47;3.08;;;;;;;19.01;41.64;101930.25;5031775;28;20041;-73
2023/03/20 02:36:07;;;;;;;5.63;2.63;;;;;;;19.01;41.76;101922.31;5030503;28;20067;-71
2023/03/20 02:38:48;;;;;;;6.18;3.10;;;;;;;18.97;41.66;101902.31;5032306;28;20086;-74
2023/03/20 02:41:28;;;;;;;6.45;3.10;;;;;;;18.96;41.66;101903.31;5031885;28;20474;-73
2023/03/20 02:44:11;;;;;;;6.90;3.25;;;;;;;18.97;41.58;101897.03;5033791;28;20457;-75
2023/03/20 02:47:18;;;;;;;6.10;2.97;;;;;;;18.98;41.78;101900.56;5031759;28;20052;-73
2023/03/20 02:50:02;;;;;;;6.65;3.30;;;;;;;18.98;41.52;101895.28;5031372;28;20037;-72
2023/03/20 02:52:48;;;;;;;5.60;2.85;;;;;;;18.98;41.44;101895.28;5032130;28;21007;-71
2023/03/20 02:55:46;;;;;;;7.15;3.15;;;;;;;18.96;41.58;101889.22;5031469;28;20045;-71
2023/03/20 02:58:25;;;;;;;5.78;3.15;;;;;;;18.95;41.50;101888.41;5026598;28;20504;-71
2023/03/20 03:01:00;;;;;;;5.80;3.40;;;;;;;18.94;41.54;101894.63;5031522;28;20060;-71
2023/03/20 03:03:37;;;;;;;6.43;3.20;;;;;;;18.93;41.46;101886.78;5031904;28;20029;-71
2023/03/20 03:06:20;;;;;;;5.38;3.20;;;;;;;18.93;41.49;101884.16;5031399;28;20575;-73
2023/03/20 03:08:51;;;;;;;8.07;3.50;;;;;;;18.91;41.55;101878.97;5031505;28;20140;-72
2023/03/20 03:11:16;;;;;;;5.63;3.08;;;;;;;18.93;41.42;101885.03;5030543;28;20035;-71
2023/03/20 03:13:47;;;;;;;6.50;3.20;;;;;;;18.92;41.48;101877.19;5030915;28;20037;-71
2023/03/20 03:16:24;;;;;;;7.07;3.35;;;;;;;18.91;41.45;101875.50;5030100;28;20485;-70
2023/03/20 03:18:58;;;;;;;5.13;2.90;;;;;;;18.90;41.43;101872.00;5030440;28;20197;-73
2023/03/20 03:21:25;;;;;;;5.90;3.33;;;;;;;18.91;41.43;101860.47;5030796;28;20033;-72
2023/03/20 03:23:51;;;;;;;6.25;3.60;;;;;;;18.88;41.36;101855.41;5030782;28;20095;-73
2023/03/20 03:26:24;;;;;;;6.18;3.10;;;;;;;18.89;41.52;101858.91;5031236;28;20036;-74
2023/03/20 03:28:54;;;;;;;6.32;3.55;;;;;;;18.88;41.25;101839.56;5030861;28;20041;-74
2023/03/20 03:31:20;;;;;;;5.40;3.13;;;;;;;18.85;41.23;101843.28;5031081;28;20038;-72
2023/03/20 03:33:49;;;;;;;6.30;3.10;;;;;;;18.87;41.39;101859.03;5030289;28;20069;-72
2023/03/20 03:36:46;;;;;;;5.95;3.33;;;;;;;18.85;41.38;101853.00;5030872;28;20091;-73
2023/03/20 03:39:23;;;;;;;6.32;3.40;;;;;;;18.83;41.25;101854.84;5030986;28;20041;-70
2023/03/20 03:41:56;;;;;;;5.80;3.35;;;;;;;18.84;41.17;101860.06;5030546;28;20254;-73
2023/03/20 03:44:59;;;;;;;6.30;3.22;;;;;;;18.82;41.22;101837.34;5031219;28;20493;-74
2023/03/20 03:47:37;;;;;;;5.93;3.10;;;;;;;18.84;41.27;101833.66;5029263;28;20068;-74
2023/03/20 03:50:11;;;;;;;5.60;3.20;;;;;;;18.83;41.18;101847.78;5030668;28;20041;-72
2023/03/20 03:52:40;;;;;;;6.47;3.33;;;;;;;18.80;41.04;101840.09;5030787;28;20036;-72
2023/03/20 03:55:09;;;;;;;6.15;3.20;;;;;;;18.78;41.28;101834.03;5030627;28;20033;-75
2023/03/20 03:57:46;;;;;;;6.28;3.38;;;;;;;18.80;41.35;101831.28;5021473;28;20393;-71
2023/03/20 04:00:16;;;;;;;5.10;3.10;;;;;;;18.80;41.22;101841.84;5029292;28;20036;-72
2023/03/20 04:02:44;;;;;;;6.30;3.55;;;;;;;18.78;41.14;101828.75;5030232;28;20116;-72
2023/03/20 04:05:11;;;;;;;6.78;3.15;;;;;;;18.79;41.26;101841.03;5030609;28;20529;-72
2023/03/20 04:07:37;;;;;;;5.70;3.13;;;;;;;18.78;41.10;101831.41;5021425;28;20033;-70
2023/03/20 04:10:03;;;;;;;5.75;3.10;;;;;;;18.75;41.11;101828.97;5028181;28;20033;-72
2023/03/20 04:12:43;;;;;;;5.43;3.30;;;;;;;18.75;41.00;101831.59;5029627;28;20033;-71
2023/03/20 04:15:09;;;;;;;6.28;3.03;;;;;;;18.77;40.98;101827.09;5029894;28;20040;-73
2023/03/20 04:17:34;;;;;;;6.32;3.28;;;;;;;18.77;41.01;101821.81;5028130;28;20066;-75
2023/03/20 04:20:00;;;;;;;7.95;3.58;;;;;;;18.68;40.92;101820.63;5026881;28;20736;-72
2023/03/20 04:22:26;;;;;;;5.82;3.10;;;;;;;18.72;40.73;101826.53;5029909;28;20033;-69
2023/03/20 04:24:51;;;;;;;6.22;2.92;;;;;;;18.75;40.88;101823.69;5029567;28;20033;-71
2023/03/20 04:27:17;;;;;;;5.70;3.05;;;;;;;18.72;41.06;101823.88;5028875;28;20529;-73
2023/03/20 04:29:43;;;;;;;6.03;3.65;;;;;;;18.73;40.76;101830.88;5033870;28;20044;-72
2023/03/20 04:32:09;;;;;;;5.10;3.20;;;;;;;18.74;40.72;101829.06;5033439;28;20494;-72
2023/03/20 04:34:34;;;;;;;6.20;3.13;;;;;;;18.73;40.95;101830.88;5034635;28;20076;-72
2023/03/20 04:37:00;;;;;;;7.57;3.00;;;;;;;18.71;40.87;101830.13;5033636;28;20037;-71
2023/03/20 04:39:26;;;;;;;5.55;3.47;;;;;;;18.74;40.88;101818.50;5033663;28;20029;-73
2023/03/20 04:41:51;;;;;;;4.95;2.88;;;;;;;18.73;40.88;101816.84;5032888;28;20034;-72
2023/03/20 04:44:17;;;;;;;5.70;3.45;;;;;;;18.72;40.89;101820.41;5035202;28;20433;-72
2023/03/20 04:46:42;;;;;;;5.57;3.15;;;;;;;18.74;40.99;101823.78;5035633;28;20065;-71
2023/03/20 04:49:07;;;;;;;5.05;2.92;;;;;;;18.71;40.80;101822.22;5036433;28;20029;-73
2023/03/20 04:51:33;;;;;;;4.63;2.60;;;;;;;18.71;40.91;101816.94;5035612;28;20037;-71
2023/03/20 04:53:58;;;;;;;5.43;2.90;;;;;;;18.72;40.92;101808.03;5036941;28;20966;-71
2023/03/20 04:56:23;;;;;;;6.13;2.95;;;;;;;18.72;40.90;101804.56;5036694;28;20036;-72
2023/03/20 04:58:48;;;;;;;6.33;3.23;;;;;;;18.71;40.79;101809.00;5035722;28;20157;-71
2023/03/20 05:01:14;;;;;;;5.80;3.45;;;;;;;18.72;40.75;101810.69;5035174;28;20289;-72
2023/03/20 05:03:39;;;;;;;5.38;3.03;;;;;;;18.71;40.77;101813.44;5034455;28;20033;-75
2023/03/20 05:06:05;;;;;;;6.25;3.00;;;;;;;18.65;40.76;101804.97;5033484;28;20037;-73
2023/03/20 05:08:30;;;;;;;5.78;3.10;;;;;;;18.66;40.58;101811.97;5033998;28;20037;-71
2023/03/20 05:10:56;;;;;;;6.18;3.17;;;;;;;18.69;40.83;101816.19;5033117;28;20456;-71
2023/03/20 05:13:21;;;;;;;6.95;2.92;;;;;;;18.64;40.75;101811.25;5024770;28;20029;-71
2023/03/20 05:15:47;;;;;;;8.05;3.30;;;;;;;18.67;40.76;101808.38;5033754;28;20041;-71
2023/03/20 05:18:12;;;;;;;5.05;2.72;;;;;;;18.66;40.76;101804.06;5033574;28;20057;-73
2023/03/20 05:20:38;;;;;;;4.80;3.05;;;;;;;18.68;40.64;101801.31;5033628;28;20029;-71
2023/03/20 05:23:03;;;;;;;8.13;3.10;;;;;;;18.66;40.71;101797.94;5026181;28;20037;-72
2023/03/20 05:25:28;;;;;;;6.60;2.90;;;;;;;18.64;40.84;101799.81;5033326;28;20044;-72
2023/03/20 05:27:53;;;;;;;6.57;3.40;;;;;;;18.66;40.87;101800.56;5033878;28;20037;-71
2023/03/20 05:30:19;;;;;;;6.00;3.00;;;;;;;18.66;40.69;101800.56;5033181;28;20470;-76
2023/03/20 05:32:45;;;;;;;5.85;3.05;;;;;;;18.64;40.43;101800.69;5024149;28;20060;-73
2023/03/20 05:35:10;;;;;;;6.22;3.17;;;;;;;18.64;40.63;101799.81;5033555;28;20043;-72
2023/03/20 05:37:37;;;;;;;6.78;3.00;;;;;;;18.64;40.43;101799.81;5033783;28;20474;-70
2023/03/20 05:40:03;;;;;;;6.47;3.10;;;;;;;18.63;40.56;101793.69;5032502;28;20052;-73
2023/03/20 05:42:28;;;;;;;6.50;3.28;;;;;;;18.63;40.55;101795.50;5033087;28;20095;-71
2023/03/20 05:44:54;;;;;;;6.93;3.00;;;;;;;18.61;40.69;101798.25;5033751;28;20044;-71
2023/03/20 05:47:19;;;;;;;6.50;3.00;;;;;;;18.61;40.47;101797.38;5031767;28;20843;-71
2023/03/20 05:49:44;;;;;;;6.97;3.65;;;;;;;18.61;40.55;101800.03;5033156;28;20397;-72
2023/03/20 05:52:10;;;;;;;6.55;2.78;;;;;;;18.60;40.46;101801.00;5033209;28;20390;-72
2023/03/20 05:54:35;;;;;;;5.07;2.78;;;;;;;18.60;40.48;101795.72;5031973;28;20040;-71
2023/03/20 05:57:00;;;;;;;5.82;3.15;;;;;;;18.59;40.52;101801.94;5032812;28;20087;-70
2023/03/20 05:59:26;;;;;;;5.95;2.80;;;;;;;18.61;40.47;101814.09;5033080;28;20617;-71
2023/03/20 06:01:51;;;;;;;5.78;2.50;;;;;;;18.61;40.60;101818.50;5033410;28;20028;-72
2023/03/20 06:04:16;;;;;;;5.25;2.72;;;;;;;18.59;40.68;101833.59;5032249;28;20171;-73
2023/03/20 06:06:41;;;;;;;5.78;2.38;;;;;;;18.59;40.38;101833.59;5031214;28;20029;-72
2023/03/20 06:09:07;;;;;;;5.55;2.80;;;;;;;18.58;40.52;101835.41;5032894;28;20130;-74
2023/03/20 06:11:32;;;;;;;4.82;2.33;;;;;;;18.58;40.62;101835.41;5032707;28;20064;-75
2023/03/20 06:13:58;;;;;;;5.25;2.60;;;;;;;18.56;41.18;101834.66;5032360;28;20029;-70
2023/03/20 06:16:23;;;;;;;5.25;2.40;;;;;;;18.58;41.27;101838.06;5032655;28;20202;-71
2023/03/20 06:18:49;;;;;;;4.78;2.15;;;;;;;18.59;41.11;101836.25;5027124;28;20061;-72
2023/03/20 06:21:14;;;;;;;3.83;1.90;;;;;;;18.58;41.39;101832.78;5032524;28;20037;-71
2023/03/20 06:23:40;;;;;;;4.32;1.83;;;;;;;18.61;41.54;101837.84;5032828;28;20474;-71
2023/03/20 06:26:07;;;;;;;4.38;1.75;;;;;;;18.64;41.57;101837.63;5033345;28;20048;-71
2023/03/20 06:28:33;;;;;;;4.20;1.98;;;;;;;18.68;41.78;101851.47;5031203;28;20045;-72
2023/03/20 06:30:58;;;;;;;4.95;2.05;;;;;;;18.69;41.71;101839.94;5031907;28;20049;-71
2023/03/20 06:33:24;;;;;;;4.60;1.92;;;;;;;18.73;41.65;101837.97;5036211;28;20427;-71
2023/03/20 06:35:49;;;;;;;6.53;1.90;;;;;;;18.74;41.45;101837.84;5031499;28;20025;-74
2023/03/20 06:38:15;;;;;;;4.57;1.73;;;;;;;18.74;41.44;101839.63;5031506;28;20029;-73
2023/03/20 06:40:41;;;;;;;4.03;1.98;;;;;;;18.77;41.44;101839.41;5031018;28;20419;-71
2023/03/20 06:43:07;;;;;;;4.57;1.98;;;;;;;18.81;41.43;101843.56;5031573;28;20033;-71
2023/03/20 06:45:32;;;;;;;4.15;1.48;;;;;;;18.80;41.40;101848.00;5031519;28;20488;-73
2023/03/20 06:47:58;;;;;;;4.15;1.70;;;;;;;18.83;41.51;101853.06;5031306;28;20043;-71
2023/03/20 06:50:23;;;;;;;4.68;1.75;;;;;;;18.89;41.31;101874.75;5031753;28;20470;-71
2023/03/20 06:52:49;;;;;;;4.30;1.95;;;;;;;18.89;41.29;101870.31;5030188;28;20064;-70
2023/03/20 06:55:14;;;;;;;3.88;1.67;;;;;;;18.93;41.51;101881.50;5031284;28;20427;-71
2023/03/20 06:57:40;;;;;;;4.63;2.00;;;;;;;18.94;41.40;101885.84;5032441;28;20099;-71
2023/03/20 07:00:06;;;;;;;3.90;1.80;;;;;;;18.96;41.26;101891.88;5031027;28;20549;-72
2023/03/20 07:02:32;;;;;;;5.15;1.70;;;;;;;18.95;41.18;101875.19;5030970;28;20033;-71
2023/03/20 07:04:57;;;;;;;4.43;1.80;;;;;;;19.02;41.28;101891.44;5031605;28;20036;-73
2023/03/20 07:07:23;;;;;;;4.82;1.65;;;;;;;19.01;40.84;101887.13;5031471;28;20033;-71
2023/03/20 07:09:49;;;;;;;5.20;1.95;;;;;;;19.03;40.82;101886.06;5030985;28;20033;-71
2023/03/20 07:12:15;;;;;;;4.32;1.92;;;;;;;19.02;41.17;101887.00;5028876;28;20057;-71
2023/03/20 07:14:42;;;;;;;4.20;1.70;;;;;;;19.07;41.08;101897.25;5030716;28;20442;-72
2023/03/20 07:17:09;;;;;;;5.18;2.05;;;;;;;19.09;40.93;101894.50;5030602;28;20124;-72
2023/03/20 07:19:35;;;;;;;5.32;1.92;;;;;;;19.06;41.04;101892.94;5030748;28;20088;-71
2023/03/20 07:22:03;;;;;;;7.82;2.40;;;;;;;19.07;40.91;101891.13;5030933;28;20034;-72
2023/03/20 07:24:30;;;;;;;5.25;2.05;;;;;;;19.05;40.97;101887.78;5031000;28;20036;-70
2023/03/20 07:26:55;;;;;;;5.28;2.10;;;;;;;19.07;41.21;101893.78;5030871;28;20029;-71
2023/03/20 07:29:21;;;;;;;5.32;2.00;;;;;;;19.07;41.39;101907.81;5030612;28;20029;-72
2023/03/20 07:31:46;;;;;;;4.97;2.00;;;;;;;19.08;41.63;101904.25;5030590;28;20030;-70
2023/03/20 07:34:12;;;;;;;4.63;1.70;;;;;;;19.07;41.46;101902.53;5030391;28;20088;-71
2023/03/20 07:36:37;;;;;;;6.03;2.22;;;;;;;19.07;41.41;101901.72;5037614;28;20463;-71
2023/03/20 07:39:02;;;;;;;4.85;1.92;;;;;;;19.07;41.40;101904.34;5031373;28;20043;-71
2023/03/20 07:41:28;;;;;;;5.10;1.90;;;;;;;19.10;41.54;101909.44;5030835;28;20036;-70
2023/03/20 07:43:53;;;;;;;4.82;1.90;;;;;;;19.09;41.46;101905.06;5030236;28;20029;-70
2023/03/20 07:46:18;;;;;;;6.87;2.07;;;;;;;19.10;41.75;101906.78;5031267;28;21309;-69
2023/03/20 07:48:43;;;;;;;7.80;2.37;;;;;;;19.10;41.75;101898.84;5030609;28;20273;-69
2023/03/20 07:51:09;;;;;;;5.50;2.17;;;;;;;19.06;41.70;101903.50;5030992;28;20340;-71
2023/03/20 07:53:35;;;;;;;5.22;2.05;;;;;;;19.09;41.73;101897.16;5030832;28;20029;-73
2023/03/20 07:56:01;;;;;;;4.30;2.03;;;;;;;19.08;41.95;101909.53;5031120;28;20033;-71
2023/03/20 07:58:26;;;;;;;5.60;1.90;;;;;;;19.07;42.08;101907.81;5030734;28;20111;-73
2023/03/20 08:00:51;;;;;;;6.32;2.38;;;;;;;19.13;41.94;101901.28;5028837;28;20060;-67
2023/03/20 08:03:17;;;;;;;5.82;2.30;;;;;;;19.22;41.67;101903.31;5030757;28;20037;-70
2023/03/20 08:05:42;;;;;;;7.32;2.33;;;;;;;19.30;41.64;101902.78;5034086;28;20470;-68
2023/03/20 08:08:08;;;;;;;5.97;2.10;;;;;;;19.33;41.50;101900.75;5033833;28;20916;-71
2023/03/20 08:10:33;;;;;;;7.25;2.28;;;;;;;19.35;41.38;101908.56;5034172;28;20033;-72
2023/03/20 08:12:58;;;;;;;8.10;2.10;;;;;;;19.31;41.50;101894.75;5033755;28;20103;-70
2023/03/20 08:15:23;;;;;;;5.30;2.00;;;;;;;19.34;41.39;101906.88;5034139;28;20120;-70
2023/03/20 08:17:49;;;;;;;6.13;2.30;;;;;;;19.34;41.58;101912.16;5032904;28;20356;-71
2023/03/20 08:20:15;;;;;;;7.07;2.70;;;;;;;19.31;41.62;101904.44;5033104;28;20034;-72
2023/03/20 08:22:41;;;;;;;6.20;2.20;;;;;;;19.27;41.73;101897.69;5033863;28;20055;-70
2023/03/20 08:25:08;;;;;;;5.63;2.15;;;;;;;19.26;41.65;101898.63;5033591;28;20459;-68
2023/03/20 08:27:35;;;;;;;7.07;2.42;;;;;;;19.28;41.73;101899.38;5033264;28;20043;-68
2023/03/20 08:30:00;;;;;;;6.07;2.08;;;;;;;19.28;41.35;101897.59;5033267;28;20044;-68
2023/03/20 08:32:26;;;;;;;6.50;2.08;;;;;;;19.25;41.44;101895.16;5033487;28;20107;-70
2023/03/20 08:34:53;;;;;;;7.50;2.80;;;;;;;19.26;41.65;101898.63;4160374;28;10000727;-69
2023/03/20 08:37:19;;;;;;;6.15;2.10;;;;;;;19.29;41.20;101906.34;5061594;28;20488;-75
2023/03/20 08:39:45;;;;;;;6.18;2.03;;;;;;;19.29;41.44;101898.44;5054028;28;20046;-72
2023/03/20 08:42:10;;;;;;;5.32;2.40;;;;;;;19.29;41.34;101901.06;5052569;28;20041;-69
2023/03/20 08:44:35;;;;;;;8.00;2.40;;;;;;;19.27;41.25;101898.53;5053593;28;20036;-70
2023/03/20 08:47:01;;;;;;;7.22;2.15;;;;;;;19.30;41.47;101902.78;5046275;28;20060;-69
2023/03/20 08:49:27;;;;;;;5.78;1.98;;;;;;;19.30;41.57;101900.97;5045347;28;20025;-72
2023/03/20 08:51:56;;;;;;;8.52;2.05;;;;;;;19.31;41.45;101901.81;5045561;28;20534;-69
2023/03/20 08:54:21;;;;;;;5.15;2.10;;;;;;;19.28;41.52;101894.94;5045917;28;20104;-69
2023/03/20 08:56:46;;;;;;;4.97;2.15;;;;;;;19.29;41.53;101898.44;5047052;28;20036;-69
2023/03/20 08:59:12;;;;;;;5.80;2.40;;;;;;;19.28;41.13;101894.09;5047624;28;20036;-70
2023/03/20 09:01:37;;;;;;;6.65;2.08;;;;;;;19.28;41.18;101899.38;5046768;28;20501;-69
2023/03/20 09:04:03;;;;;;;6.32;2.22;;;;;;;19.26;41.39;101894.19;5045952;28;20029;-68
2023/03/20 09:06:29;;;;;;;6.38;2.38;;;;;;;19.25;41.13;101892.53;5046955;28;20031;-70
2023/03/20 09:08:56;;;;;;;6.53;2.50;;;;;;;19.28;41.03;101902.00;5046508;28;20021;-70
2023/03/20 09:11:22;;;;;;;5.28;2.20;;;;;;;19.27;41.41;101900.34;5045623;28;20478;-69
2023/03/20 09:13:47;;;;;;;6.28;2.15;;;;;;;19.25;41.17;101900.44;5045750;28;20039;-70
2023/03/20 09:16:12;;;;;;;5.75;2.25;;;;;;;19.26;40.95;101911.84;5043767;28;20029;-69
2023/03/20 09:18:38;;;;;;;7.90;2.42;;;;;;;19.27;41.11;101910.91;5046459;28;20555;-71
2023/03/20 09:21:03;;;;;;;4.50;1.95;;;;;;;19.29;40.96;101914.28;5040480;28;20353;-71
2023/03/20 09:23:28;;;;;;;7.45;2.15;;;;;;;19.29;40.81;101919.56;5047270;28;20040;-73
2023/03/20 09:25:54;;;;;;;6.50;1.90;;;;;;;19.29;40.83;101915.13;5047337;28;20481;-69
2023/03/20 09:28:19;;;;;;;7.80;2.08;;;;;;;19.31;41.01;101922.94;5044815;28;20041;-69
2023/03/20 09:30:45;;;;;;;5.45;2.20;;;;;;;19.27;41.32;101924.97;5044807;28;20776;-68
2023/03/20 09:33:10;;;;;;;4.82;2.30;;;;;;;19.23;41.28;101917.34;5043332;28;20412;-69
2023/03/20 09:35:36;;;;;;;6.07;1.85;;;;;;;19.28;41.38;101928.44;5044649;28;20036;-72
2023/03/20 09:38:01;;;;;;;5.28;2.05;;;;;;;19.28;41.23;101912.59;5045655;28;20090;-70
2023/03/20 09:40:38;;;;;;;8.77;2.20;;;;;;;19.25;41.40;101915.44;5045607;28;20040;-69
2023/03/20 09:43:16;;;;;;;5.68;2.20;;;;;;;19.26;40.96;101915.34;5052946;28;20041;-66
2023/03/20 09:45:55;;;;;;;10.93;2.22;;;;;;;19.29;41.44;101917.75;5044510;28;20028;-68
2023/03/20 09:48:27;;;;;;;8.90;2.08;;;;;;;19.30;41.58;101922.13;5045069;28;20072;-69
2023/03/20 09:51:43;;;;;;;5.68;1.95;;;;;;;19.31;41.74;101922.94;5045240;28;20089;-69
2023/03/20 09:54:28;;;;;;;6.80;2.53;;;;;;;19.30;41.76;101916.81;5027696;28;20090;-68
2023/03/20 09:56:55;;;;;;;;;;;;;;;19.37;41.84;101917.25;5045269;28;20611;-68
2023/03/20 09:59:22;;;;;;;5.53;2.00;;;;;;;19.37;41.64;101912.78;5044142;28;19917;-67
2023/03/20 10:01:58;;;;;;;8.35;1.90;;;;;;;19.35;42.20;101911.22;5043779;28;20039;-67
2023/03/20 10:04:27;;;;;;;5.32;1.88;;;;;;;19.32;41.86;101903.50;5044016;28;20028;-67
2023/03/20 10:06:53;;;;;;;9.30;2.65;;;;;;;19.33;42.00;101910.50;5036710;28;20045;-69
2023/03/20 10:09:24;;;;;;;6.90;2.00;;;;;;;19.32;42.22;101919.38;5043510;28;20344;-68
2023/03/20 10:12:05;;;;;;;7.22;1.83;;;;;;;19.27;42.13;101911.75;5044042;28;20121;-67
2023/03/20 10:15:05;;;;;;;5.57;1.85;;;;;;;19.25;42.53;101896.94;5044940;28;20028;-67
2023/03/20 10:17:34;;;;;;;6.10;1.80;;;;;;;19.29;42.66;101903.72;5045642;28;20047;-69
2023/03/20 10:20:33;;;;;;;4.82;1.70;;;;;;;19.37;42.29;101904.84;5044265;28;20079;-72
2023/03/20 10:23:06;;;;;;;8.73;1.88;;;;;;;19.48;42.07;101901.47;5065671;28;20129;-71
2023/03/20 10:25:47;;;;;;;5.83;1.63;;;;;;;19.51;41.84;101897.78;5049921;28;20472;-69
2023/03/20 10:28:30;;;;;;;5.55;2.00;;;;;;;19.57;41.76;101894.69;5052012;28;20078;-73
2023/03/20 10:31:02;;;;;;;4.37;1.67;;;;;;;19.60;41.68;101886.56;5044619;28;20380;-72
2023/03/20 10:33:53;;;;;;;7.22;1.83;;;;;;;19.55;41.61;101886.88;5052405;28;20063;-71
2023/03/20 10:36:37;;;;;;;6.57;2.05;;;;;;;19.61;41.37;101888.22;5052054;28;20039;-70
2023/03/20 10:39:29;;;;;;;;;;;;;;;19.65;41.65;101889.69;5052695;28;20124;-71
2023/03/20 10:42:00;;;;;;;6.50;1.65;;;;;;;19.61;41.44;101887.38;5067370;28;20342;-71
2023/03/20 10:44:39;;;;;;;5.50;1.77;;;;;;;19.56;41.49;101890.34;5041956;28;20043;-71
2023/03/20 10:47:08;;;;;;;4.90;1.90;;;;;;;19.54;41.54;101881.69;5051704;28;20042;-72
2023/03/20 10:49:42;;;;;;;6.18;1.65;;;;;;;19.48;41.60;101882.13;5042878;28;20029;-70
2023/03/20 10:52:16;;;;;;;5.43;1.93;;;;;;;19.49;41.72;101886.47;5051339;28;20494;-73
2023/03/20 10:54:58;;;;;;;4.57;1.92;;;;;;;19.45;41.53;101883.19;5050467;28;20270;-70
2023/03/20 10:57:26;;;;;;;6.78;2.15;;;;;;;19.44;41.79;101878.88;5051932;28;20032;-67
2023/03/20 10:59:54;;;;;;;6.50;2.00;;;;;;;19.41;41.67;101894.94;5052291;28;20431;-73
2023/03/20 11:02:24;;;;;;;4.65;1.70;;;;;;;19.42;41.70;101885.19;5042041;28;20033;-72
2023/03/20 11:04:49;;;;;;;6.78;1.65;;;;;;;19.39;41.80;101878.31;5047546;28;20144;-72
2023/03/20 11:07:24;;;;;;;6.65;1.73;;;;;;;19.43;41.64;101878.97;5051102;28;20195;-72
2023/03/20 11:10:04;;;;;;;6.20;2.10;;;;;;;19.40;41.77;101883.50;5051671;28;21184;-72
2023/03/20 11:12:36;;;;;;;7.82;2.17;;;;;;;19.37;41.76;101881.06;5051152;28;20033;-73
2023/03/20 11:15:14;;;;;;;8.32;2.00;;;;;;;19.38;41.74;101879.28;5042274;28;20037;-71
2023/03/20 11:17:40;;;;;;;5.45;1.83;;;;;;;19.32;41.65;101861.22;5051634;28;20043;-72
2023/03/20 11:20:06;;;;;;;5.72;1.65;;;;;;;19.35;41.57;101858.34;5051069;28;20045;-72
2023/03/20 11:22:31;;;;;;;4.75;1.88;;;;;;;19.36;41.60;101862.69;5050945;28;20468;-69
2023/03/20 11:25:02;;;;;;;6.68;1.70;;;;;;;19.35;41.72;101853.06;5051186;28;20032;-70
2023/03/20 11:27:33;;;;;;;5.65;1.90;;;;;;;19.29;41.63;101842.94;5049732;28;20039;-70
2023/03/20 11:30:03;;;;;;;7.15;1.60;;;;;;;19.27;41.96;101842.19;5051057;28;20056;-72
2023/03/20 11:32:34;;;;;;;5.32;1.50;;;;;;;19.24;41.99;101837.97;5050818;28;20028;-69
2023/03/20 11:35:33;;;;;;;5.32;1.80;;;;;;;19.24;41.93;101840.59;5051002;28;20040;-70
2023/03/20 11:38:29;;;;;;;5.57;1.65;;;;;;;19.23;41.95;101841.53;5047774;28;20127;-71
2023/03/20 11:40:55;;;;;;;5.57;1.45;;;;;;;19.23;41.92;101832.78;5048157;28;20049;-71